Time;durP1;ratioP1;P1;durP2;ratioP2;P2;SDS_P1;SDS_P2;PMS_P1;PMS_P2;Temp;Humidity;BMP_temperature;BMP_pressure;BME280_temperature;BME280_humidity;BME280_pressure;Samples;Min_cycle;Max_cycle;Signal;HPM_P1;HPM_P2
2021/05/21 00:01:13;;;;;;;86.03;66.18;;;22.30;89.80;;;;;;4994459;28;20054;-82
2021/05/21 00:03:40;;;;;;;85.90;66.57;;;22.30;89.80;;;;;;4993344;28;20069;-82
2021/05/21 00:06:06;;;;;;;89.30;68.18;;;22.30;89.80;;;;;;4993343;28;20544;-81
2021/05/21 00:08:32;;;;;;;84.07;66.25;;;22.30;89.80;;;;;;4993196;28;20061;-82
2021/05/21 00:10:58;;;;;;;87.40;66.03;;;22.30;89.90;;;;;;4994959;28;20392;-81
2021/05/21 00:13:23;;;;;;;86.05;65.57;;;22.30;89.90;;;;;;4993409;28;20030;-81
2021/05/21 00:15:49;;;;;;;80.78;62.70;;;22.30;89.80;;;;;;4993516;28;20073;-81
2021/05/21 00:18:15;;;;;;;83.10;64.95;;;22.30;89.90;;;;;;4977131;28;20041;-81
2021/05/21 00:20:40;;;;;;;84.15;65.72;;;22.20;89.80;;;;;;4993160;28;20105;-82
2021/05/21 00:23:06;;;;;;;85.53;65.43;;;22.30;89.90;;;;;;4976636;28;20109;-81
2021/05/21 00:25:31;;;;;;;81.68;63.13;;;22.30;89.90;;;;;;4992705;28;20058;-82
2021/05/21 00:27:57;;;;;;;85.88;64.85;;;22.30;89.90;;;;;;4976919;28;20042;-82
2021/05/21 00:30:23;;;;;;;84.75;64.25;;;22.30;90.00;;;;;;4993084;28;20424;-81
2021/05/21 00:32:48;;;;;;;79.75;61.15;;;22.30;89.90;;;;;;4976553;28;20085;-81
2021/05/21 00:35:14;;;;;;;81.78;60.90;;;22.20;89.90;;;;;;4978822;28;20035;-82
2021/05/21 00:37:40;;;;;;;77.80;59.75;;;22.20;89.90;;;;;;4995781;28;20400;-82
2021/05/21 00:40:06;;;;;;;78.95;60.10;;;22.30;89.90;;;;;;5013940;28;20030;-81
2021/05/21 00:42:32;;;;;;;73.28;58.47;;;22.30;89.90;;;;;;4996100;28;20093;-82
2021/05/21 00:44:59;;;;;;;78.88;59.58;;;22.30;89.90;;;;;;4996107;28;20040;-81
2021/05/21 00:47:26;;;;;;;77.78;59.22;;;22.20;89.80;;;;;;4979783;28;20034;-82
2021/05/21 00:49:52;;;;;;;76.47;58.10;;;22.30;89.90;;;;;;5013213;28;20026;-81
2021/05/21 00:52:18;;;;;;;73.35;56.10;;;22.20;89.90;;;;;;4996049;28;20499;-81
2021/05/21 00:54:45;;;;;;;70.72;54.75;;;22.30;89.90;;;;;;5013313;28;20111;-81
2021/05/21 00:57:11;;;;;;;72.93;55.58;;;22.20;89.90;;;;;;5013111;28;20041;-82
2021/05/21 00:59:37;;;;;;;68.45;54.45;;;22.20;89.80;;;;;;4979699;28;20113;-82
2021/05/21 01:02:03;;;;;;;63.75;51.55;;;22.20;89.90;;;;;;4995669;28;20030;-82
2021/05/21 01:04:28;;;;;;;66.72;52.72;;;22.20;89.90;;;;;;4995818;28;20498;-82
2021/05/21 01:06:54;;;;;;;67.60;50.28;;;22.20;89.90;;;;;;4995571;28;20552;-81
2021/05/21 01:09:20;;;;;;;63.47;48.67;;;22.20;89.90;;;;;;4995876;28;20030;-82
2021/05/21 01:11:45;;;;;;;63.38;49.28;;;22.20;89.90;;;;;;4995416;28;20030;-81
2021/05/21 01:14:11;;;;;;;61.47;49.50;;;22.20;89.90;;;;;;4996034;28;20472;-82
2021/05/21 01:16:37;;;;;;;63.97;49.15;;;22.20;89.90;;;;;;4978944;28;20041;-83
2021/05/21 01:19:05;;;;;;;60.25;45.05;;;22.20;89.90;;;;;;5013005;28;20499;-82
2021/05/21 01:21:33;;;;;;;59.22;46.55;;;22.20;89.90;;;;;;4995686;28;20487;-81
2021/05/21 01:23:58;;;;;;;59.17;45.53;;;22.20;90.00;;;;;;5013134;28;20057;-82
2021/05/21 01:26:25;;;;;;;57.33;45.97;;;22.20;89.90;;;;;;5013328;28;20065;-81
2021/05/21 01:28:52;;;;;;;58.70;43.30;;;22.20;89.90;;;;;;5012760;28;20480;-81
2021/05/21 01:31:18;;;;;;;55.22;43.58;;;22.20;89.90;;;;;;4979690;28;20034;-81
2021/05/21 01:33:44;;;;;;;57.47;43.85;;;22.20;89.90;;;;;;5012886;28;20030;-82
2021/05/21 01:36:10;;;;;;;54.55;41.90;;;22.20;89.90;;;;;;4981743;28;20064;-82
2021/05/21 01:38:37;;;;;;;52.00;41.45;;;22.20;89.90;;;;;;5017029;28;20128;-82
2021/05/21 01:41:02;;;;;;;51.75;39.83;;;22.20;89.90;;;;;;4999582;28;20145;-81
2021/05/21 01:43:29;;;;;;;50.53;40.00;;;22.20;89.90;;;;;;4999493;28;20483;-82
2021/05/21 01:45:55;;;;;;;55.17;41.10;;;22.20;89.90;;;;;;4983111;28;20034;-82
2021/05/21 01:48:21;;;;;;;49.65;38.53;;;22.20;90.00;;;;;;4983096;28;20049;-82
2021/05/21 01:50:46;;;;;;;49.28;38.08;;;22.20;90.00;;;;;;4966644;28;20098;-82
2021/05/21 01:53:12;;;;;;;47.45;36.05;;;22.20;90.00;;;;;;4966975;28;20110;-82
2021/05/21 01:55:37;;;;;;;48.75;36.47;;;22.20;90.00;;;;;;4999148;28;20060;-82
2021/05/21 01:58:03;;;;;;;46.65;37.15;;;22.20;90.00;;;;;;5016399;28;20038;-81
2021/05/21 02:00:30;;;;;;;45.85;34.78;;;22.20;89.90;;;;;;4999078;28;20034;-82
2021/05/21 02:02:55;;;;;;;44.22;34.95;;;22.20;89.90;;;;;;5016459;28;20096;-82
2021/05/21 02:05:21;;;;;;;46.50;35.70;;;22.20;89.90;;;;;;4999175;28;20026;-83
2021/05/21 02:07:47;;;;;;;43.33;33.00;;;22.20;89.90;;;;;;4982564;28;20391;-82
2021/05/21 02:10:13;;;;;;;42.42;33.63;;;22.20;90.00;;;;;;4998648;28;20497;-82
2021/05/21 02:12:44;;;;;;;39.70;31.95;;;22.20;90.00;;;;;;4998774;28;20026;-82
2021/05/21 02:15:10;;;;;;;43.25;32.70;;;22.20;90.00;;;;;;5016397;28;20045;-82
2021/05/21 02:17:36;;;;;;;41.25;32.10;;;22.20;90.00;;;;;;4998552;28;20383;-82
2021/05/21 02:20:04;;;;;;;41.70;31.90;;;22.20;90.00;;;;;;5016144;28;20038;-82
2021/05/21 02:22:31;;;;;;;38.78;30.45;;;22.20;90.00;;;;;;4998696;28;20034;-81
2021/05/21 02:24:58;;;;;;;40.05;30.38;;;22.10;90.00;;;;;;4982256;28;20057;-82
2021/05/21 02:27:24;;;;;;;36.72;28.70;;;22.10;90.00;;;;;;5016098;28;20033;-82
2021/05/21 02:29:50;;;;;;;39.58;30.00;;;22.20;90.00;;;;;;4998363;28;20175;-82
2021/05/21 02:32:16;;;;;;;36.88;28.85;;;22.10;90.00;;;;;;4998478;28;20036;-83
2021/05/21 02:34:42;;;;;;;37.50;28.13;;;22.10;90.00;;;;;;4998524;28;20113;-81
2021/05/21 02:37:08;;;;;;;32.42;25.85;;;22.20;90.00;;;;;;4997775;28;20050;-82
2021/05/21 02:39:34;;;;;;;35.10;26.45;;;22.20;90.00;;;;;;4998009;28;20496;-82
2021/05/21 02:42:00;;;;;;;33.58;25.58;;;22.20;90.10;;;;;;5016030;28;20029;-82
2021/05/21 02:44:26;;;;;;;33.05;25.88;;;22.10;90.00;;;;;;4998188;28;20468;-82
2021/05/21 02:46:51;;;;;;;31.52;24.35;;;22.20;90.10;;;;;;5015208;28;20033;-82
2021/05/21 02:49:20;;;;;;;32.53;24.00;;;22.20;90.10;;;;;;5015681;28;20469;-82
2021/05/21 02:51:47;;;;;;;34.08;24.42;;;22.10;90.00;;;;;;5015697;28;20029;-82
2021/05/21 02:54:13;;;;;;;29.67;22.88;;;22.10;90.00;;;;;;5015303;28;20037;-82
2021/05/21 02:56:39;;;;;;;32.75;24.10;;;22.10;90.00;;;;;;5015487;28;20048;-82
2021/05/21 02:59:04;;;;;;;28.45;21.65;;;22.10;90.00;;;;;;4997750;28;20026;-83
2021/05/21 03:01:30;;;;;;;26.73;21.33;;;22.10;90.00;;;;;;5015804;28;20092;-82
2021/05/21 03:03:56;;;;;;;28.88;21.92;;;22.10;90.00;;;;;;4997710;28;20117;-82
2021/05/21 03:06:21;;;;;;;27.02;20.15;;;22.10;90.00;;;;;;4981375;28;20057;-82
2021/05/21 03:08:47;;;;;;;27.98;20.40;;;22.10;90.00;;;;;;4998123;28;20048;-82
2021/05/21 03:11:12;;;;;;;27.23;19.55;;;22.10;90.00;;;;;;4965191;28;20460;-82
2021/05/21 03:13:38;;;;;;;27.85;19.77;;;22.10;90.00;;;;;;4965302;28;20104;-82
2021/05/21 03:16:04;;;;;;;27.35;19.80;;;22.10;90.20;;;;;;4997531;28;20061;-82
2021/05/21 03:18:29;;;;;;;22.80;18.33;;;22.10;90.00;;;;;;4997801;28;20086;-82
2021/05/21 03:20:55;;;;;;;24.02;18.67;;;22.10;90.00;;;;;;4997335;28;20030;-83
2021/05/21 03:23:21;;;;;;;25.17;18.60;;;22.10;90.00;;;;;;5015122;28;20354;-82
2021/05/21 03:25:46;;;;;;;23.95;18.17;;;22.10;90.00;;;;;;5015193;28;20388;-82
2021/05/21 03:28:13;;;;;;;23.08;17.05;;;22.10;90.00;;;;;;5014879;28;20510;-83
2021/05/21 03:30:39;;;;;;;21.85;17.10;;;22.10;90.00;;;;;;5015179;28;20127;-82
2021/05/21 03:33:06;;;;;;;21.17;15.93;;;22.10;90.00;;;;;;5014813;28;20022;-83
2021/05/21 03:35:32;;;;;;;20.73;15.40;;;22.10;90.00;;;;;;5014824;28;20025;-82
2021/05/21 03:37:58;;;;;;;20.98;15.18;;;22.10;90.00;;;;;;5014575;28;20575;-83
2021/05/21 03:40:24;;;;;;;21.92;15.70;;;22.10;90.00;;;;;;4997490;28;20061;-82
2021/05/21 03:42:49;;;;;;;22.52;15.43;;;22.10;90.00;;;;;;4964990;28;20030;-82
2021/05/21 03:45:16;;;;;;;20.08;14.48;;;22.10;90.00;;;;;;4996873;28;20030;-82
2021/05/21 03:47:44;;;;;;;19.60;14.02;;;22.10;90.00;;;;;;4980995;28;20117;-83
2021/05/21 03:50:11;;;;;;;19.92;15.23;;;22.10;90.00;;;;;;5014839;28;20034;-82
2021/05/21 03:52:36;;;;;;;19.27;14.02;;;22.10;90.00;;;;;;5014686;28;20029;-82
2021/05/21 03:55:04;;;;;;;17.83;13.40;;;22.00;89.90;;;;;;4980424;28;20053;-83
2021/05/21 03:57:29;;;;;;;18.05;13.57;;;22.10;89.90;;;;;;4996122;28;20030;-83
2021/05/21 03:59:55;;;;;;;19.80;13.55;;;22.00;89.90;;;;;;4996799;28;20084;-82
2021/05/21 04:02:21;;;;;;;18.25;12.65;;;22.10;89.90;;;;;;5014320;28;20054;-82
2021/05/21 04:04:46;;;;;;;16.27;11.90;;;22.10;89.80;;;;;;5014722;28;20058;-82
2021/05/21 04:07:12;;;;;;;16.30;11.75;;;22.00;89.70;;;;;;4996677;28;20416;-82
2021/05/21 04:09:38;;;;;;;17.10;12.52;;;22.00;89.70;;;;;;4964436;28;20033;-82
2021/05/21 04:12:04;;;;;;;16.92;12.32;;;22.00;89.80;;;;;;5014051;28;20041;-82
2021/05/21 04:14:29;;;;;;;17.25;11.57;;;22.00;89.70;;;;;;5014238;28;20464;-82
2021/05/21 04:16:55;;;;;;;18.88;12.05;;;22.00;89.80;;;;;;4996638;28;20044;-82
2021/05/21 04:19:21;;;;;;;15.75;11.10;;;22.00;89.80;;;;;;4996098;28;20041;-82
2021/05/21 04:21:46;;;;;;;13.45;10.50;;;22.00;89.80;;;;;;4964456;28;20030;-82
2021/05/21 04:24:12;;;;;;;15.77;10.98;;;22.00;89.90;;;;;;5013550;28;20530;-83
2021/05/21 04:26:38;;;;;;;14.43;10.68;;;22.00;89.80;;;;;;4980367;28;20105;-82
2021/05/21 04:29:04;;;;;;;14.85;10.85;;;22.00;89.90;;;;;;5013742;28;20044;-83
2021/05/21 04:31:29;;;;;;;13.82;9.93;;;22.00;89.90;;;;;;4996501;28;20034;-83
2021/05/21 04:33:55;;;;;;;13.43;10.20;;;22.00;90.00;;;;;;4980069;28;20099;-82
2021/05/21 04:36:21;;;;;;;12.45;9.07;;;22.00;89.90;;;;;;4979670;28;20061;-82
2021/05/21 04:38:47;;;;;;;14.43;9.27;;;22.00;89.80;;;;;;5013923;28;20369;-82
2021/05/21 04:41:13;;;;;;;13.30;8.70;;;22.00;89.80;;;;;;5013759;28;20033;-83
2021/05/21 04:43:39;;;;;;;11.63;9.05;;;22.00;89.90;;;;;;4996604;28;20030;-82
2021/05/21 04:46:06;;;;;;;12.65;8.40;;;22.00;89.90;;;;;;4979809;28;20125;-82
2021/05/21 04:48:32;;;;;;;12.60;9.05;;;22.00;89.90;;;;;;4996546;28;20079;-82
2021/05/21 04:50:58;;;;;;;12.35;8.23;;;22.00;89.80;;;;;;4996146;28;20030;-82
2021/05/21 04:53:24;;;;;;;11.15;8.05;;;22.00;89.80;;;;;;4995967;28;20464;-82
2021/05/21 04:55:50;;;;;;;13.63;8.40;;;22.00;90.00;;;;;;4996190;28;20025;-82
2021/05/21 04:58:16;;;;;;;11.77;8.43;;;22.00;89.90;;;;;;4995749;28;20432;-82
2021/05/21 05:00:42;;;;;;;11.65;8.27;;;22.00;89.90;;;;;;4996080;28;20117;-82
2021/05/21 05:03:09;;;;;;;10.55;7.90;;;22.00;90.00;;;;;;4995541;28;20120;-83
2021/05/21 05:05:35;;;;;;;10.52;8.00;;;22.00;90.00;;;;;;4995809;28;20109;-82
2021/05/21 05:08:00;;;;;;;10.13;7.10;;;22.00;90.00;;;;;;4995704;28;20457;-82
2021/05/21 05:10:26;;;;;;;10.15;7.07;;;22.00;90.00;;;;;;4995485;28;20070;-82
2021/05/21 05:12:53;;;;;;;9.10;6.80;;;22.00;90.00;;;;;;4995737;28;20034;-82
2021/05/21 05:15:19;;;;;;;12.32;7.60;;;22.00;90.00;;;;;;4995835;28;20127;-82
2021/05/21 05:17:48;;;;;;;11.60;6.85;;;22.00;90.00;;;;;;5013447;28;20038;-82
2021/05/21 05:20:14;;;;;;;10.07;6.97;;;22.00;90.00;;;;;;5013139;28;20026;-82
2021/05/21 05:22:40;;;;;;;9.40;6.63;;;22.00;90.00;;;;;;4995758;28;20435;-82
2021/05/21 05:25:07;;;;;;;10.88;7.32;;;22.00;89.90;;;;;;4995744;28;20101;-82
2021/05/21 05:27:34;;;;;;;7.93;5.57;;;22.00;90.00;;;;;;5013525;28;20504;-82
2021/05/21 05:30:00;;;;;;;10.40;6.30;;;22.00;90.00;;;;;;4995807;28;20034;-82
2021/05/21 05:32:26;;;;;;;9.52;6.05;;;22.00;90.00;;;;;;5013005;28;20136;-82
2021/05/21 05:34:51;;;;;;;7.22;5.47;;;22.10;90.00;;;;;;4995768;28;20507;-82
2021/05/21 05:37:17;;;;;;;8.85;6.28;;;22.00;89.90;;;;;;5012872;28;20061;-83
2021/05/21 05:39:43;;;;;;;8.98;5.90;;;22.10;90.00;;;;;;4995543;28;20032;-82
2021/05/21 05:42:09;;;;;;;8.27;6.25;;;22.10;90.00;;;;;;5013066;28;20034;-85
2021/05/21 05:44:35;;;;;;;8.18;6.07;;;22.00;89.90;;;;;;4995403;28;20037;-82
2021/05/21 05:47:00;;;;;;;8.30;6.05;;;22.00;89.80;;;;;;4995522;28;20476;-82
2021/05/21 05:49:26;;;;;;;10.88;7.22;;;22.00;90.00;;;;;;4978605;28;20030;-83
2021/05/21 05:51:51;;;;;;;12.35;8.05;;;22.00;90.00;;;;;;4979279;28;20121;-82
2021/05/21 05:54:17;;;;;;;10.52;7.70;;;22.00;90.10;;;;;;4979120;28;20173;-82
2021/05/21 05:56:43;;;;;;;12.23;7.88;;;22.00;90.10;;;;;;4979175;28;20277;-82
2021/05/21 05:59:08;;;;;;;12.75;8.15;;;22.00;90.10;;;;;;4995425;28;20341;-82
2021/05/21 06:01:34;;;;;;;13.93;9.35;;;22.00;90.00;;;;;;4994743;28;20053;-82
2021/05/21 06:04:00;;;;;;;13.90;10.05;;;22.00;90.10;;;;;;4962750;28;20107;-83
2021/05/21 06:06:25;;;;;;;16.05;11.82;;;22.00;90.10;;;;;;5012541;28;20124;-82
2021/05/21 06:08:51;;;;;;;15.90;11.57;;;22.00;90.10;;;;;;4995244;28;20037;-82
2021/05/21 06:11:17;;;;;;;17.92;12.43;;;22.00;90.10;;;;;;4978730;28;20026;-82
2021/05/21 06:13:43;;;;;;;17.55;13.20;;;22.00;90.10;;;;;;4995237;28;20052;-82
2021/05/21 06:16:09;;;;;;;20.90;14.55;;;22.00;90.10;;;;;;4978988;28;20360;-82
2021/05/21 06:18:34;;;;;;;22.90;16.98;;;22.10;90.10;;;;;;4977168;28;20049;-83
2021/05/21 06:21:00;;;;;;;25.38;18.45;;;22.00;90.10;;;;;;4979412;28;20037;-84
2021/05/21 06:23:26;;;;;;;32.33;20.00;;;22.10;90.20;;;;;;4998721;28;20029;-81
2021/05/21 06:25:57;;;;;;;30.40;21.75;;;22.00;90.10;;;;;;5016259;28;20101;-82
2021/05/21 06:28:24;;;;;;;34.53;23.23;;;22.10;90.20;;;;;;4983052;28;20465;-82
2021/05/21 06:30:51;;;;;;;35.08;24.25;;;22.00;90.20;;;;;;4998940;28;20034;-82
2021/05/21 06:33:17;;;;;;;34.95;25.35;;;22.00;90.10;;;;;;5015821;28;20021;-83
2021/05/21 06:35:43;;;;;;;37.33;26.75;;;22.00;90.10;;;;;;5016095;28;20088;-82
2021/05/21 06:38:09;;;;;;;35.72;26.17;;;22.00;90.10;;;;;;4997933;28;20058;-81
2021/05/21 06:40:35;;;;;;;39.78;28.10;;;22.00;90.00;;;;;;4998072;28;20422;-82
2021/05/21 06:43:08;;;;;;;40.95;29.00;;;22.00;90.00;;;;;;4966063;28;20038;-82
2021/05/21 06:45:34;;;;;;;42.95;30.90;;;22.00;90.00;;;;;;4998100;28;20498;-82
2021/05/21 06:48:00;;;;;;;44.90;31.50;;;22.00;90.00;;;;;;5015787;28;20030;-82
2021/05/21 06:50:26;;;;;;;41.42;31.80;;;22.00;90.00;;;;;;4981559;28;20120;-83
2021/05/21 06:52:51;;;;;;;47.42;33.33;;;22.00;90.00;;;;;;5015815;28;20088;-83
2021/05/21 06:55:17;;;;;;;47.40;34.67;;;22.00;90.00;;;;;;5015540;28;20053;-82
2021/05/21 06:57:42;;;;;;;47.58;34.78;;;22.00;89.90;;;;;;4981385;28;20038;-82
2021/05/21 07:00:09;;;;;;;50.65;37.70;;;22.00;89.90;;;;;;4998046;28;20026;-82
2021/05/21 07:02:35;;;;;;;48.95;35.20;;;22.00;90.00;;;;;;4981869;28;20095;-82
2021/05/21 07:05:01;;;;;;;50.17;36.88;;;22.00;89.90;;;;;;4998053;28;20057;-83
2021/05/21 07:07:30;;;;;;;52.03;36.97;;;22.00;89.80;;;;;;4997660;28;20038;-83
2021/05/21 07:09:56;;;;;;;56.40;38.75;;;22.00;89.80;;;;;;4998588;28;20120;-83
2021/05/21 07:12:21;;;;;;;58.53;38.85;;;21.90;89.70;;;;;;4981525;28;20116;-84
2021/05/21 07:14:47;;;;;;;63.50;42.03;;;22.00;89.80;;;;;;4981588;28;20036;-83
2021/05/21 07:17:13;;;;;;;64.38;44.15;;;22.00;89.80;;;;;;4997661;28;20042;-83
2021/05/21 07:19:39;;;;;;;68.50;46.08;;;22.00;89.80;;;;;;5015240;28;20089;-83
2021/05/21 07:22:06;;;;;;;63.50;45.10;;;21.90;89.70;;;;;;4982112;28;20084;-83
2021/05/21 07:24:31;;;;;;;68.35;45.92;;;22.00;89.70;;;;;;5015575;28;20037;-83
2021/05/21 07:26:57;;;;;;;70.32;47.30;;;21.90;89.60;;;;;;4997430;28;20034;-83
2021/05/21 07:29:23;;;;;;;73.43;48.15;;;22.00;89.60;;;;;;5014942;28;20079;-83
2021/05/21 07:31:48;;;;;;;71.43;47.20;;;21.90;89.50;;;;;;5014716;28;20384;-83
2021/05/21 07:34:14;;;;;;;67.25;46.08;;;22.00;89.50;;;;;;5013610;28;20104;-83
2021/05/21 07:36:40;;;;;;;69.65;46.65;;;21.90;89.50;;;;;;4996643;28;20500;-83
2021/05/21 07:39:05;;;;;;;73.22;47.20;;;22.00;89.50;;;;;;4997296;28;20033;-83
2021/05/21 07:41:31;;;;;;;66.15;45.72;;;22.00;89.50;;;;;;4981028;28;20487;-83
2021/05/21 07:43:58;;;;;;;70.60;45.65;;;22.00;89.50;;;;;;5014979;28;20033;-83
2021/05/21 07:46:24;;;;;;;64.90;44.38;;;21.90;89.50;;;;;;4981037;28;20109;-83
2021/05/21 07:48:51;;;;;;;66.90;46.13;;;22.00;89.50;;;;;;4996700;28;20042;-83
2021/05/21 07:51:17;;;;;;;65.57;44.47;;;22.00;89.50;;;;;;5014637;28;20460;-82
2021/05/21 07:53:43;;;;;;;61.05;42.08;;;21.90;89.50;;;;;;5014315;28;20027;-82
2021/05/21 07:56:09;;;;;;;65.78;43.13;;;22.00;89.50;;;;;;4996912;28;20032;-82
2021/05/21 07:58:34;;;;;;;53.60;38.10;;;22.00;89.40;;;;;;4995988;28;20105;-82
2021/05/21 08:01:01;;;;;;;56.15;40.17;;;22.00;89.30;;;;;;4996496;28;20108;-82
2021/05/21 08:03:27;;;;;;;56.58;37.60;;;22.00;89.20;;;;;;5013845;28;20471;-82
2021/05/21 08:05:52;;;;;;;55.03;37.60;;;22.00;89.10;;;;;;4979863;28;20072;-82
2021/05/21 08:08:22;;;;;;;47.88;33.92;;;21.90;89.10;;;;;;4980312;28;20136;-83
2021/05/21 08:10:59;;;;;;;46.28;34.38;;;22.00;89.10;;;;;;4996177;28;20038;-82
2021/05/21 08:13:24;;;;;;;47.92;35.28;;;22.00;89.10;;;;;;4996114;28;20443;-82
2021/05/21 08:15:51;;;;;;;50.78;35.47;;;22.00;89.00;;;;;;5013903;28;20069;-82
2021/05/21 08:18:17;;;;;;;49.60;35.65;;;22.00;89.00;;;;;;5013504;28;20030;-82
2021/05/21 08:20:43;;;;;;;48.75;35.45;;;21.90;88.90;;;;;;5013629;28;20029;-82
2021/05/21 08:23:11;;;;;;;47.40;34.58;;;22.00;88.90;;;;;;5014032;28;20061;-82
2021/05/21 08:25:36;;;;;;;48.70;35.13;;;22.00;88.90;;;;;;4996109;28;20491;-82
2021/05/21 08:28:02;;;;;;;48.63;36.78;;;21.90;88.80;;;;;;4980011;28;20030;-82
2021/05/21 08:30:28;;;;;;;47.55;36.35;;;22.00;89.00;;;;;;4996355;28;20030;-82
2021/05/21 08:32:54;;;;;;;47.70;36.50;;;22.00;89.00;;;;;;5013778;28;20092;-83
2021/05/21 08:35:21;;;;;;;48.80;36.40;;;22.00;89.00;;;;;;4980039;28;20120;-82
2021/05/21 08:37:47;;;;;;;49.33;37.90;;;22.00;89.00;;;;;;4992286;28;20057;-82
2021/05/21 08:40:20;;;;;;;48.40;37.10;;;22.00;89.00;;;;;;4976616;28;20038;-82
2021/05/21 08:42:50;;;;;;;46.30;35.75;;;22.00;88.90;;;;;;4992557;28;20033;-82
2021/05/21 08:45:17;;;;;;;50.90;38.33;;;21.90;88.90;;;;;;4993557;28;20025;-82
2021/05/21 08:47:43;;;;;;;46.92;34.63;;;22.00;88.90;;;;;;4976467;28;20027;-82
2021/05/21 08:50:10;;;;;;;43.95;34.17;;;22.00;88.90;;;;;;4976611;28;20101;-82
2021/05/21 08:52:37;;;;;;;42.88;32.58;;;22.00;88.90;;;;;;4976753;28;20105;-83
2021/05/21 08:55:05;;;;;;;42.00;32.88;;;22.00;88.90;;;;;;4992647;28;20109;-82
2021/05/21 08:57:32;;;;;;;43.67;33.00;;;22.00;88.90;;;;;;4994046;28;20048;-82
2021/05/21 08:59:58;;;;;;;39.38;32.08;;;22.00;88.90;;;;;;4992803;28;20030;-82
2021/05/21 09:02:27;;;;;;;39.15;31.20;;;21.90;88.90;;;;;;4994417;28;20081;-82
2021/05/21 09:04:58;;;;;;;39.55;31.17;;;22.00;88.90;;;;;;4992353;28;20022;-83
2021/05/21 09:07:24;;;;;;;38.05;30.63;;;21.90;88.80;;;;;;4994205;28;20049;-83
2021/05/21 09:09:50;;;;;;;38.90;30.83;;;22.00;88.90;;;;;;4992462;28;20457;-83
2021/05/21 09:12:18;;;;;;;35.60;29.23;;;22.00;88.90;;;;;;4992912;28;20065;-82
2021/05/21 09:15:03;;;;;;;35.95;28.35;;;22.00;88.90;;;;;;4992693;28;20037;-82
2021/05/21 09:17:29;;;;;;;40.70;30.45;;;22.00;88.80;;;;;;4992967;28;20039;-82
2021/05/21 09:19:55;;;;;;;37.45;29.13;;;22.00;88.90;;;;;;4993765;28;20503;-82
2021/05/21 09:22:20;;;;;;;40.50;31.13;;;22.00;88.90;;;;;;4994129;28;20483;-82
2021/05/21 09:24:48;;;;;;;40.05;30.63;;;22.00;88.90;;;;;;4976294;28;20031;-82
2021/05/21 09:27:16;;;;;;;40.90;32.03;;;22.00;88.90;;;;;;4993887;28;20034;-82
2021/05/21 09:29:48;;;;;;;33.63;27.92;;;22.00;88.90;;;;;;4993039;28;20026;-83
2021/05/21 09:32:22;;;;;;;36.30;28.45;;;22.00;88.90;;;;;;4993436;28;20391;-82
2021/05/21 09:35:05;;;;;;;37.20;29.27;;;22.00;88.90;;;;;;4993777;28;20023;-82
2021/05/21 09:37:33;;;;;;;38.58;29.48;;;22.00;88.90;;;;;;4991959;28;20384;-81
2021/05/21 09:40:08;;;;;;;34.33;27.58;;;22.00;88.90;;;;;;4993306;28;20504;-82
2021/05/21 09:42:50;;;;;;;31.42;25.38;;;22.00;88.90;;;;;;4992446;28;20030;-82
2021/05/21 09:45:21;;;;;;;30.55;25.23;;;22.10;88.90;;;;;;4992481;28;20026;-82
2021/05/21 09:47:56;;;;;;;29.02;24.02;;;22.00;88.80;;;;;;4993433;28;20119;-81
2021/05/21 09:50:32;;;;;;;29.20;24.05;;;22.00;88.80;;;;;;4992426;28;20366;-81
2021/05/21 09:53:22;;;;;;;30.63;23.88;;;22.00;88.60;;;;;;4991997;28;20487;-81
2021/05/21 09:55:54;;;;;;;28.85;22.88;;;22.00;88.60;;;;;;4993942;28;20477;-83
2021/05/21 09:58:23;;;;;;;26.52;21.20;;;22.00;88.60;;;;;;4997302;28;20034;-82
2021/05/21 10:01:11;;;;;;;25.35;21.15;;;22.00;88.60;;;;;;4995941;28;20026;-83
2021/05/21 10:03:38;;;;;;;28.83;22.52;;;22.00;88.50;;;;;;4996048;28;20451;-83
2021/05/21 10:06:05;;;;;;;30.33;22.35;;;22.00;88.60;;;;;;4995801;28;20465;-82
2021/05/21 10:08:31;;;;;;;29.55;22.67;;;22.00;88.60;;;;;;4997149;28;20109;-83
2021/05/21 10:10:57;;;;;;;25.83;20.27;;;22.00;88.70;;;;;;4997220;28;20026;-83
2021/05/21 10:13:23;;;;;;;26.63;20.33;;;22.00;88.70;;;;;;4996788;28;20054;-82
2021/05/21 10:15:52;;;;;;;23.88;18.83;;;22.00;88.80;;;;;;4995604;28;20027;-82
2021/05/21 10:18:18;;;;;;;23.15;18.15;;;22.00;89.10;;;;;;4995624;28;20038;-82
2021/05/21 10:20:46;;;;;;;21.55;17.35;;;22.00;89.60;;;;;;4996639;28;20045;-84
2021/05/21 10:23:18;;;;;;;18.70;15.45;;;22.10;89.80;;;;;;4995527;28;20118;-83
2021/05/21 10:25:46;;;;;;;22.20;17.48;;;22.10;89.90;;;;;;4995169;28;20046;-82
2021/05/21 10:28:13;;;;;;;21.08;17.58;;;22.10;90.10;;;;;;4995480;28;20034;-83
2021/05/21 10:30:39;;;;;;;20.70;16.60;;;22.10;90.20;;;;;;4995581;28;20038;-83
2021/05/21 10:33:15;;;;;;;23.30;17.75;;;22.00;90.20;;;;;;4995081;28;20110;-83
2021/05/21 10:35:42;;;;;;;22.92;16.77;;;22.10;90.30;;;;;;4996171;28;20137;-83
2021/05/21 10:38:25;;;;;;;22.05;17.30;;;22.10;90.30;;;;;;5007500;28;20161;-83
2021/05/21 10:41:18;;;;;;;20.92;16.80;;;22.10;90.40;;;;;;5015925;28;20100;-83
2021/05/21 10:43:53;;;;;;;18.67;15.30;;;22.10;90.40;;;;;;4998491;28;20464;-83
2021/05/21 10:46:21;;;;;;;19.92;15.15;;;22.10;90.40;;;;;;5016016;28;20029;-83
2021/05/21 10:48:58;;;;;;;20.67;15.38;;;22.10;90.40;;;;;;4998580;28;20038;-83
2021/05/21 10:51:25;;;;;;;18.98;14.50;;;22.00;90.40;;;;;;5015964;28;20101;-82
2021/05/21 10:54:30;;;;;;;19.27;15.20;;;22.00;90.40;;;;;;4981777;28;20133;-83
2021/05/21 10:57:09;;;;;;;16.52;12.63;;;22.00;90.40;;;;;;4901030;29;20028;-82
2021/05/21 10:59:55;;;;;;;16.20;13.35;;;22.00;90.30;;;;;;4916954;29;20036;-82
2021/05/21 11:02:26;;;;;;;15.48;13.00;;;22.00;90.40;;;;;;4968959;28;20111;-82
2021/05/21 11:05:15;;;;;;;15.90;12.77;;;22.00;90.40;;;;;;5014955;28;20480;-83
2021/05/21 11:07:43;;;;;;;17.38;12.80;;;22.00;90.40;;;;;;4983773;28;20033;-82
2021/05/21 11:10:33;;;;;;;15.85;12.15;;;22.00;90.40;;;;;;4997661;28;20473;-82
2021/05/21 11:13:16;;;;;;;15.65;12.07;;;22.00;90.30;;;;;;4997363;28;20177;-82
2021/05/21 11:15:53;;;;;;;14.35;11.38;;;22.00;90.20;;;;;;4997934;28;20038;-82
2021/05/21 11:18:21;;;;;;;11.70;9.57;;;22.00;90.20;;;;;;4982849;28;20041;-82
2021/05/21 11:21:01;;;;;;;13.00;10.38;;;22.00;90.10;;;;;;4997468;28;20523;-82
2021/05/21 11:23:53;;;;;;;11.75;9.90;;;21.90;90.00;;;;;;4997878;28;20073;-82
2021/05/21 11:26:19;;;;;;;12.52;9.93;;;21.90;90.10;;;;;;5015428;28;20022;-83
2021/05/21 11:28:51;;;;;;;13.52;10.15;;;21.90;90.20;;;;;;4997707;28;20037;-82
2021/05/21 11:31:22;;;;;;;13.68;9.68;;;21.90;90.20;;;;;;5014997;28;20026;-82
2021/05/21 11:33:51;;;;;;;13.23;9.02;;;22.00;90.20;;;;;;5015144;28;20029;-82
2021/05/21 11:36:26;;;;;;;10.50;8.57;;;21.90;90.10;;;;;;5014839;28;20022;-82
2021/05/21 11:38:53;;;;;;;10.70;8.63;;;21.90;90.10;;;;;;5014592;28;20046;-82
2021/05/21 11:41:28;;;;;;;10.35;8.15;;;22.00;90.10;;;;;;4997154;28;20030;-82
2021/05/21 11:43:54;;;;;;;12.32;8.23;;;22.00;90.10;;;;;;4997544;28;20475;-83
2021/05/21 11:46:21;;;;;;;10.70;8.10;;;22.00;90.20;;;;;;5014326;28;20054;-83
2021/05/21 11:48:49;;;;;;;11.15;8.55;;;21.90;90.10;;;;;;5014557;28;20415;-82
2021/05/21 11:51:26;;;;;;;10.98;8.82;;;21.90;90.20;;;;;;4980821;28;20030;-83
2021/05/21 11:53:52;;;;;;;12.57;9.00;;;21.90;90.20;;;;;;5014819;28;20492;-83
2021/05/21 11:56:30;;;;;;;9.98;7.18;;;21.90;90.10;;;;;;4996972;28;20029;-82
2021/05/21 11:59:05;;;;;;;10.38;7.25;;;21.90;90.20;;;;;;4997135;28;20037;-83
2021/05/21 12:01:32;;;;;;;10.90;6.95;;;21.90;90.10;;;;;;4997120;28;20065;-83
2021/05/21 12:04:05;;;;;;;10.57;6.95;;;21.90;90.10;;;;;;4996908;28;20030;-83
2021/05/21 12:06:32;;;;;;;10.45;6.05;;;21.90;90.10;;;;;;4997250;28;20037;-84
2021/05/21 12:08:58;;;;;;;8.23;6.22;;;21.90;90.10;;;;;;4980910;28;20038;-83
2021/05/21 12:11:26;;;;;;;8.10;5.18;;;21.90;90.00;;;;;;5014358;28;20030;-83
2021/05/21 12:13:52;;;;;;;9.27;5.38;;;21.90;90.00;;;;;;5014582;28;20030;-83
2021/05/21 12:16:19;;;;;;;9.18;5.22;;;21.90;90.00;;;;;;4996610;28;20539;-84
2021/05/21 12:18:49;;;;;;;6.20;4.03;;;21.90;90.00;;;;;;4980115;28;20037;-83
2021/05/21 12:21:25;;;;;;;6.28;4.05;;;22.00;90.00;;;;;;5014251;28;20030;-83
2021/05/21 12:23:52;;;;;;;8.10;4.18;;;21.90;89.80;;;;;;4996562;28;20070;-83
2021/05/21 12:26:22;;;;;;;5.93;4.10;;;21.90;89.70;;;;;;4980396;28;20030;-83
2021/05/21 12:28:49;;;;;;;6.70;3.55;;;21.90;89.70;;;;;;5014476;28;20337;-83
2021/05/21 12:31:18;;;;;;;4.63;3.22;;;21.90;89.60;;;;;;4979448;28;20041;-84
2021/05/21 12:33:44;;;;;;;3.78;2.95;;;21.90;89.60;;;;;;4996368;28;20476;-84